Time;durP1;ratioP1;P1;durP2;ratioP2;P2;SDS_P1;SDS_P2;PMS_P1;PMS_P2;Temp;Humidity;BMP_temperature;BMP_pressure;BME280_temperature;BME280_humidity;BME280_pressure;Samples;Min_cycle;Max_cycle;Signal;HPM_P1;HPM_P2
2022/02/22 00:01:37;;;;;;;6.22;0.90;;;6.90;99.90;;;;;;5029567;28;20041;-77
2022/02/22 00:04:03;;;;;;;5.22;1.30;;;6.90;99.90;;;;;;5024203;28;20220;-75
2022/02/22 00:06:29;;;;;;;9.75;1.83;;;6.90;99.90;;;;;;5026255;28;20022;-72
2022/02/22 00:08:55;;;;;;;4.78;1.05;;;6.90;99.90;;;;;;5022640;28;20026;-73
2022/02/22 00:11:21;;;;;;;4.97;1.33;;;6.90;99.90;;;;;;5018151;28;20124;-73
2022/02/22 00:13:48;;;;;;;3.22;1.63;;;6.90;99.90;;;;;;5024395;28;20482;-71
2022/02/22 00:16:13;;;;;;;4.85;1.05;;;7.00;99.90;;;;;;5027225;28;20041;-73
2022/02/22 00:18:39;;;;;;;2.33;0.90;;;6.90;99.90;;;;;;5031040;28;20398;-73
2022/02/22 00:21:05;;;;;;;3.55;1.27;;;7.00;99.90;;;;;;5028740;28;20033;-73
2022/02/22 00:23:30;;;;;;;5.70;1.13;;;6.90;99.90;;;;;;5033348;28;20057;-69
2022/02/22 00:25:56;;;;;;;6.15;1.33;;;6.90;99.90;;;;;;5023974;28;20036;-73
2022/02/22 00:28:21;;;;;;;3.45;1.10;;;6.90;99.90;;;;;;5024976;28;20028;-73
2022/02/22 00:30:49;;;;;;;2.85;1.38;;;6.90;99.90;;;;;;5029622;28;20022;-72
2022/02/22 00:33:15;;;;;;;3.03;0.95;;;6.80;99.90;;;;;;5029260;28;20116;-72
2022/02/22 00:35:41;;;;;;;5.82;1.38;;;6.70;99.90;;;;;;5042845;28;20100;-72
2022/02/22 00:38:07;;;;;;;6.68;1.83;;;6.70;99.90;;;;;;5033959;28;20061;-71
2022/02/22 00:40:33;;;;;;;4.57;1.65;;;6.70;99.90;;;;;;5042244;28;20112;-72
2022/02/22 00:42:59;;;;;;;5.18;1.65;;;6.60;99.90;;;;;;5031045;28;20445;-71
2022/02/22 00:45:24;;;;;;;4.82;1.23;;;6.60;99.90;;;;;;5047902;28;20030;-72
2022/02/22 00:47:50;;;;;;;5.32;1.13;;;6.60;99.90;;;;;;5031413;28;20185;-72
2022/02/22 00:50:16;;;;;;;4.47;1.25;;;6.70;99.90;;;;;;5045327;28;20040;-71
2022/02/22 00:52:41;;;;;;;5.05;1.27;;;6.70;99.90;;;;;;5037227;28;20083;-72
2022/02/22 00:55:07;;;;;;;6.75;1.30;;;6.60;99.90;;;;;;5030185;28;20087;-72
2022/02/22 00:57:33;;;;;;;6.47;1.00;;;6.60;99.90;;;;;;5028375;28;20021;-71
2022/02/22 00:59:58;;;;;;;6.75;1.20;;;6.70;99.90;;;;;;5027386;28;20371;-72
2022/02/22 01:02:24;;;;;;;4.50;1.20;;;6.60;99.90;;;;;;5031348;28;20146;-71
2022/02/22 01:04:49;;;;;;;5.00;1.17;;;6.60;99.90;;;;;;5032398;28;20053;-71
2022/02/22 01:07:20;;;;;;;4.38;1.02;;;6.50;99.90;;;;;;5030278;28;20030;-70
2022/02/22 01:09:47;;;;;;;5.47;1.13;;;6.50;99.90;;;;;;5029121;28;20100;-71
2022/02/22 01:12:14;;;;;;;4.93;1.00;;;6.60;99.90;;;;;;5024529;28;20076;-71
2022/02/22 01:14:40;;;;;;;3.55;1.20;;;6.60;99.90;;;;;;5024757;28;20029;-71
2022/02/22 01:17:05;;;;;;;3.70;1.15;;;6.60;99.90;;;;;;5017695;28;20402;-72
2022/02/22 01:19:31;;;;;;;6.70;1.35;;;6.60;99.90;;;;;;5023893;28;20029;-71
2022/02/22 01:21:57;;;;;;;3.15;1.15;;;6.60;99.90;;;;;;5028244;28;20033;-72
2022/02/22 01:24:22;;;;;;;6.95;1.02;;;6.50;99.90;;;;;;5030806;28;20037;-71
2022/02/22 01:26:48;;;;;;;3.88;1.00;;;6.60;99.90;;;;;;5023276;28;20031;-72
2022/02/22 01:29:14;;;;;;;4.10;0.80;;;6.50;99.90;;;;;;5027558;28;20402;-71
2022/02/22 01:31:39;;;;;;;4.05;1.10;;;6.50;99.90;;;;;;5027466;28;20025;-71
2022/02/22 01:34:05;;;;;;;4.60;1.15;;;6.40;99.90;;;;;;5024756;28;20026;-71
2022/02/22 01:36:30;;;;;;;4.43;1.10;;;6.40;99.90;;;;;;5020606;28;20557;-73
2022/02/22 01:38:56;;;;;;;3.40;1.00;;;6.40;99.90;;;;;;5021941;28;20120;-71
2022/02/22 01:41:23;;;;;;;5.18;1.35;;;6.50;99.90;;;;;;5028076;28;20052;-71
2022/02/22 01:43:49;;;;;;;5.75;1.52;;;6.40;99.90;;;;;;5025863;28;20029;-71
2022/02/22 01:46:15;;;;;;;6.28;1.63;;;6.40;99.90;;;;;;5026917;28;20040;-71
2022/02/22 01:48:41;;;;;;;6.43;1.45;;;6.40;99.90;;;;;;5028447;28;20104;-72
2022/02/22 01:51:06;;;;;;;2.17;1.20;;;6.30;99.90;;;;;;5019723;28;20116;-72
2022/02/22 01:53:32;;;;;;;4.93;1.67;;;6.20;99.90;;;;;;5027720;28;20450;-72
2022/02/22 01:55:59;;;;;;;5.35;0.98;;;6.00;99.90;;;;;;5029967;28;20021;-71
2022/02/22 01:58:29;;;;;;;4.68;0.95;;;6.00;99.90;;;;;;5024428;28;20022;-72
2022/02/22 02:00:55;;;;;;;4.65;1.20;;;5.90;99.90;;;;;;5025070;28;20439;-71
2022/02/22 02:03:21;;;;;;;5.00;1.77;;;5.80;99.90;;;;;;5019119;28;20025;-71
2022/02/22 02:05:47;;;;;;;3.35;1.10;;;5.80;99.90;;;;;;5022139;28;20017;-71
2022/02/22 02:08:13;;;;;;;6.40;1.13;;;5.70;99.90;;;;;;5023482;28;20398;-70
2022/02/22 02:10:38;;;;;;;10.10;2.38;;;5.70;99.90;;;;;;5026737;28;20029;-72
2022/02/22 02:13:04;;;;;;;3.25;1.05;;;5.60;99.90;;;;;;5029973;28;20029;-70
2022/02/22 02:15:30;;;;;;;7.40;1.30;;;5.70;99.90;;;;;;5026041;28;20488;-70
2022/02/22 02:17:56;;;;;;;4.38;1.13;;;5.70;99.90;;;;;;5021393;28;20026;-71
2022/02/22 02:20:22;;;;;;;6.25;1.15;;;5.70;99.90;;;;;;5029302;28;20026;-71
2022/02/22 02:22:48;;;;;;;2.28;0.68;;;5.60;99.90;;;;;;5025442;28;20530;-71
2022/02/22 02:25:14;;;;;;;4.25;1.00;;;5.70;99.90;;;;;;5028004;28;20453;-72
2022/02/22 02:27:40;;;;;;;4.78;1.42;;;5.80;99.90;;;;;;5029098;28;20029;-72
2022/02/22 02:30:07;;;;;;;6.95;1.27;;;5.80;99.90;;;;;;5018876;28;20507;-71
2022/02/22 02:32:33;;;;;;;7.55;2.55;;;5.80;99.90;;;;;;5022339;28;20030;-71
2022/02/22 02:34:59;;;;;;;5.95;2.13;;;5.80;99.90;;;;;;5020685;28;20380;-71
2022/02/22 02:37:25;;;;;;;5.22;1.27;;;5.80;99.90;;;;;;5028856;28;20025;-70
2022/02/22 02:39:51;;;;;;;5.25;1.23;;;5.80;99.90;;;;;;5018177;28;20501;-71
2022/02/22 02:42:18;;;;;;;7.20;1.60;;;5.70;99.90;;;;;;5022418;28;20042;-71
2022/02/22 02:44:45;;;;;;;5.53;1.92;;;5.70;99.90;;;;;;5013795;28;20048;-72
2022/02/22 02:47:11;;;;;;;7.85;1.77;;;5.70;99.90;;;;;;5025009;28;20443;-71
2022/02/22 02:49:38;;;;;;;4.15;1.45;;;5.60;99.90;;;;;;5039189;28;20037;-71
2022/02/22 02:52:04;;;;;;;8.57;1.20;;;5.60;99.90;;;;;;5049440;28;20052;-71
2022/02/22 02:54:29;;;;;;;6.57;1.48;;;5.60;99.90;;;;;;5052300;28;20037;-71
2022/02/22 02:56:55;;;;;;;3.60;1.30;;;5.60;99.90;;;;;;5044790;28;20033;-71
2022/02/22 02:59:20;;;;;;;8.50;1.48;;;5.60;99.90;;;;;;5046058;28;20067;-71
2022/02/22 03:01:46;;;;;;;5.80;1.20;;;5.70;99.90;;;;;;5039724;28;20025;-73
2022/02/22 03:04:12;;;;;;;7.35;3.30;;;5.70;99.90;;;;;;5027170;28;20033;-71
2022/02/22 03:06:39;;;;;;;11.90;2.08;;;5.70;99.90;;;;;;5027451;28;20054;-70
2022/02/22 03:09:05;;;;;;;3.08;1.05;;;5.70;99.90;;;;;;5021254;28;20030;-71
2022/02/22 03:11:31;;;;;;;2.33;1.13;;;5.60;99.90;;;;;;5030189;28;20540;-71
2022/02/22 03:13:57;;;;;;;7.70;1.10;;;5.60;99.90;;;;;;5025381;28;20121;-71
2022/02/22 03:16:23;;;;;;;4.22;1.42;;;5.60;99.90;;;;;;5029821;28;20089;-72
2022/02/22 03:18:49;;;;;;;4.95;1.00;;;5.50;99.90;;;;;;5021362;28;20091;-72
2022/02/22 03:21:15;;;;;;;4.45;1.45;;;5.50;99.90;;;;;;5026234;28;20124;-72
2022/02/22 03:23:41;;;;;;;8.88;3.00;;;5.50;99.90;;;;;;5026819;28;20489;-71
2022/02/22 03:26:07;;;;;;;7.10;1.45;;;5.50;99.90;;;;;;5029227;28;20030;-70
2022/02/22 03:28:33;;;;;;;8.48;1.77;;;5.50;99.90;;;;;;5025242;28;20033;-70
2022/02/22 03:31:00;;;;;;;2.38;0.70;;;5.60;99.90;;;;;;5022957;28;20021;-72
2022/02/22 03:33:26;;;;;;;7.05;2.08;;;5.60;99.90;;;;;;5022858;28;20028;-72
2022/02/22 03:35:52;;;;;;;5.65;1.27;;;5.50;99.90;;;;;;5020045;28;20038;-71
2022/02/22 03:38:17;;;;;;;4.80;1.08;;;5.50;99.90;;;;;;5027692;28;20026;-70
2022/02/22 03:40:43;;;;;;;4.68;1.80;;;5.60;99.90;;;;;;5024872;28;20022;-71
2022/02/22 03:43:08;;;;;;;6.65;1.23;;;5.60;99.90;;;;;;5018144;28;20390;-71
2022/02/22 03:45:34;;;;;;;4.90;1.45;;;5.60;99.90;;;;;;5026295;28;20375;-73
2022/02/22 03:48:00;;;;;;;9.90;2.22;;;5.60;99.90;;;;;;5023898;28;20034;-70
2022/02/22 03:50:25;;;;;;;6.90;1.95;;;5.50;99.90;;;;;;5022955;28;20025;-71
2022/02/22 03:52:51;;;;;;;6.88;1.83;;;5.40;99.90;;;;;;5022080;28;20513;-71
2022/02/22 03:55:17;;;;;;;7.50;1.40;;;5.50;99.90;;;;;;5029387;28;20104;-71
2022/02/22 03:57:43;;;;;;;3.60;1.92;;;5.50;99.90;;;;;;5022539;28;20394;-71
2022/02/22 04:00:14;;;;;;;3.53;1.70;;;5.60;99.90;;;;;;5025132;28;20028;-72
2022/02/22 04:02:40;;;;;;;;;;;5.50;99.90;;;;;;5031640;28;20079;-71
2022/02/22 04:05:07;;;;;;;11.00;1.60;;;5.50;99.90;;;;;;5015682;28;20377;-71
2022/02/22 04:07:34;;;;;;;5.07;1.35;;;5.40;99.90;;;;;;5018475;28;21671;-72
2022/02/22 04:09:59;;;;;;;4.20;1.70;;;5.40;99.90;;;;;;5030644;28;20103;-71
2022/02/22 04:12:25;;;;;;;4.05;1.30;;;5.50;99.90;;;;;;5032614;28;20483;-71
2022/02/22 04:14:50;;;;;;;5.93;1.20;;;5.50;99.90;;;;;;5015313;28;20040;-72
2022/02/22 04:17:16;;;;;;;1.42;0.90;;;5.30;99.90;;;;;;5031749;28;20029;-71
2022/02/22 04:19:41;;;;;;;4.65;1.02;;;5.10;99.90;;;;;;5022372;28;20022;-70
2022/02/22 04:22:07;;;;;;;3.92;1.20;;;4.90;99.90;;;;;;5024708;28;20378;-70
2022/02/22 04:24:35;;;;;;;2.97;1.50;;;4.90;99.90;;;;;;5026669;28;20099;-71
2022/02/22 04:27:00;;;;;;;7.90;2.05;;;4.90;99.90;;;;;;5022344;28;20500;-71
2022/02/22 04:29:26;;;;;;;6.85;1.73;;;4.90;99.90;;;;;;5027923;28;20056;-72
2022/02/22 04:31:52;;;;;;;8.63;1.88;;;4.90;99.90;;;;;;5030894;28;20037;-71
2022/02/22 04:34:17;;;;;;;2.35;1.50;;;4.80;99.90;;;;;;5027609;28;20026;-71
2022/02/22 04:36:43;;;;;;;4.15;1.83;;;4.80;99.90;;;;;;5023487;28;20534;-71
2022/02/22 04:39:10;;;;;;;6.57;2.03;;;4.80;99.90;;;;;;5020765;28;20068;-71
2022/02/22 04:41:36;;;;;;;8.55;1.83;;;4.70;99.90;;;;;;5020425;28;20029;-71
2022/02/22 04:44:02;;;;;;;6.00;2.38;;;4.70;99.90;;;;;;5026903;28;20033;-72
2022/02/22 04:46:27;;;;;;;7.97;1.75;;;4.70;99.90;;;;;;5023398;28;20032;-72
2022/02/22 04:48:53;;;;;;;4.75;1.63;;;4.60;99.90;;;;;;5027683;28;20076;-71
2022/02/22 04:51:19;;;;;;;6.65;1.42;;;4.70;99.90;;;;;;5030679;28;20072;-71
2022/02/22 04:53:44;;;;;;;9.55;3.13;;;4.60;99.90;;;;;;5020736;28;20061;-71
2022/02/22 04:56:10;;;;;;;5.72;1.83;;;4.60;99.90;;;;;;5030396;28;20083;-71
2022/02/22 04:58:36;;;;;;;8.38;2.00;;;4.70;99.90;;;;;;5026041;28;20047;-72
2022/02/22 05:01:02;;;;;;;6.40;1.92;;;4.70;99.90;;;;;;5028409;28;20108;-71
2022/02/22 05:03:28;;;;;;;3.42;1.35;;;4.70;99.90;;;;;;5040643;28;20025;-72
2022/02/22 05:05:54;;;;;;;6.15;2.38;;;4.80;99.90;;;;;;5024288;28;20030;-71
2022/02/22 05:08:20;;;;;;;2.70;0.73;;;4.80;99.90;;;;;;5024639;28;20044;-70
2022/02/22 05:10:46;;;;;;;7.00;1.83;;;4.90;99.90;;;;;;5022033;28;20028;-71
2022/02/22 05:13:12;;;;;;;9.32;1.75;;;4.90;99.90;;;;;;5027907;28;20108;-71
2022/02/22 05:15:38;;;;;;;5.18;1.83;;;4.80;99.90;;;;;;5022996;28;20125;-71
2022/02/22 05:18:04;;;;;;;7.88;1.83;;;4.80;99.90;;;;;;5042039;28;20017;-71
2022/02/22 05:20:31;;;;;;;6.75;1.90;;;4.70;99.90;;;;;;5028405;28;20071;-70
2022/02/22 05:22:57;;;;;;;9.68;2.00;;;4.60;99.90;;;;;;5033788;28;20367;-71
2022/02/22 05:25:23;;;;;;;6.35;1.63;;;4.60;99.90;;;;;;5027197;28;20032;-71
2022/02/22 05:27:48;;;;;;;6.47;2.47;;;4.60;99.90;;;;;;5028485;28;20041;-71
2022/02/22 05:30:16;;;;;;;9.60;1.80;;;4.60;99.90;;;;;;5028225;28;20032;-71
2022/02/22 05:32:42;;;;;;;9.38;2.25;;;4.60;99.90;;;;;;5022270;28;20033;-71
2022/02/22 05:35:10;;;;;;;3.83;1.63;;;4.60;99.90;;;;;;5027638;28;20099;-71
2022/02/22 05:37:35;;;;;;;7.70;2.17;;;4.60;99.90;;;;;;5019636;28;20104;-70
2022/02/22 05:40:03;;;;;;;4.72;1.70;;;4.60;99.90;;;;;;5029220;28;20163;-71
2022/02/22 05:42:29;;;;;;;11.82;2.00;;;4.50;99.90;;;;;;5018061;28;20021;-71
2022/02/22 05:44:55;;;;;;;4.88;1.83;;;4.60;99.90;;;;;;5024683;28;20029;-71
2022/02/22 05:47:20;;;;;;;5.93;1.77;;;4.60;99.90;;;;;;5024926;28;20099;-69
2022/02/22 05:49:47;;;;;;;4.72;1.50;;;4.60;99.90;;;;;;5028922;28;20029;-70
2022/02/22 05:52:13;;;;;;;9.52;1.88;;;4.60;99.90;;;;;;5025329;28;20029;-71
2022/02/22 05:54:39;;;;;;;8.82;2.05;;;4.70;99.90;;;;;;5027763;28;20064;-72
2022/02/22 05:57:05;;;;;;;2.80;1.45;;;4.70;99.90;;;;;;5024695;28;20584;-71
2022/02/22 05:59:31;;;;;;;7.95;1.73;;;4.60;99.90;;;;;;5014748;28;20044;-70
2022/02/22 06:01:57;;;;;;;9.60;1.60;;;4.50;99.90;;;;;;5027642;28;20101;-71
2022/02/22 06:04:24;;;;;;;6.20;1.83;;;4.50;99.90;;;;;;5025733;28;20038;-70
2022/02/22 06:06:50;;;;;;;6.47;2.00;;;4.60;99.90;;;;;;5024460;28;20028;-71
2022/02/22 06:09:15;;;;;;;9.25;1.75;;;4.60;99.90;;;;;;5026693;28;20022;-70
2022/02/22 06:11:42;;;;;;;6.35;2.13;;;4.50;99.90;;;;;;5024482;28;20036;-71
2022/02/22 06:14:08;;;;;;;2.22;1.13;;;4.50;99.90;;;;;;5024800;28;20026;-72
2022/02/22 06:16:33;;;;;;;11.48;1.83;;;4.50;99.90;;;;;;5030894;28;20402;-72
2022/02/22 06:18:59;;;;;;;9.02;2.50;;;4.60;99.90;;;;;;5012865;28;20026;-72
2022/02/22 06:21:24;;;;;;;10.82;2.72;;;4.60;99.90;;;;;;5030367;28;20025;-71
2022/02/22 06:23:50;;;;;;;7.47;1.80;;;4.50;99.90;;;;;;5015025;28;20112;-71
2022/02/22 06:26:16;;;;;;;6.97;1.90;;;4.50;99.90;;;;;;5025702;28;20033;-71
2022/02/22 06:28:41;;;;;;;7.07;1.42;;;4.50;99.90;;;;;;5020334;28;20072;-71
2022/02/22 06:31:07;;;;;;;6.03;1.83;;;4.40;99.90;;;;;;5023561;28;20030;-72
2022/02/22 06:33:33;;;;;;;11.77;1.70;;;4.40;99.90;;;;;;5026127;28;20029;-71
2022/02/22 06:35:59;;;;;;;6.68;1.95;;;4.50;99.90;;;;;;5024414;28;20037;-71
2022/02/22 06:38:25;;;;;;;9.05;1.73;;;4.40;99.90;;;;;;5026940;28;20417;-71
2022/02/22 06:40:51;;;;;;;12.88;2.30;;;4.50;99.90;;;;;;5027677;28;20504;-72
2022/02/22 06:43:16;;;;;;;4.03;1.70;;;4.50;99.90;;;;;;5023748;28;20026;-70
2022/02/22 06:45:42;;;;;;;7.00;2.78;;;4.50;99.90;;;;;;5030603;28;20104;-71
2022/02/22 06:48:08;;;;;;;8.75;3.03;;;4.50;99.90;;;;;;5022385;28;20033;-72
2022/02/22 06:50:35;;;;;;;7.78;3.28;;;4.60;99.90;;;;;;5024961;28;20108;-71
2022/02/22 06:53:00;;;;;;;7.05;2.03;;;4.70;99.90;;;;;;5019850;28;20037;-70
2022/02/22 06:55:26;;;;;;;6.97;1.88;;;4.70;99.90;;;;;;5028201;28;20030;-71
2022/02/22 06:58:13;;;;;;;9.90;2.85;;;4.80;99.90;;;;;;5041431;28;20029;-72
2022/02/22 07:00:43;;;;;;;9.70;2.13;;;4.80;99.90;;;;;;5036772;28;20439;-71
2022/02/22 07:03:09;;;;;;;4.80;1.88;;;4.90;99.90;;;;;;5033188;28;20030;-71
2022/02/22 07:05:35;;;;;;;12.43;2.38;;;4.90;99.90;;;;;;5035971;28;20027;-71
2022/02/22 07:08:01;;;;;;;4.68;1.92;;;4.90;99.90;;;;;;5028606;28;20397;-71
2022/02/22 07:10:28;;;;;;;7.40;1.92;;;5.00;99.90;;;;;;5036601;28;20024;-70
2022/02/22 07:12:54;;;;;;;9.80;2.78;;;5.00;99.90;;;;;;5034472;28;20052;-71
2022/02/22 07:15:20;;;;;;;5.00;1.67;;;5.00;99.90;;;;;;5040282;28;20106;-71
2022/02/22 07:17:49;;;;;;;8.30;2.17;;;5.00;99.90;;;;;;5030902;28;20068;-71
2022/02/22 07:20:17;;;;;;;6.40;2.30;;;5.10;99.90;;;;;;5044929;28;20021;-70
2022/02/22 07:22:46;;;;;;;9.05;2.20;;;5.20;99.90;;;;;;5027148;28;20013;-71
2022/02/22 07:25:13;;;;;;;7.45;3.38;;;5.30;99.90;;;;;;5041994;28;20029;-72
2022/02/22 07:27:41;;;;;;;7.00;2.40;;;5.40;99.90;;;;;;5046034;28;20036;-72
2022/02/22 07:30:08;;;;;;;5.40;2.15;;;5.50;99.90;;;;;;5045644;28;20022;-71
2022/02/22 07:32:34;;;;;;;12.98;2.53;;;5.70;99.90;;;;;;5044138;28;20511;-71
2022/02/22 07:35:00;;;;;;;5.10;1.95;;;5.80;99.90;;;;;;5039379;28;20065;-71
2022/02/22 07:37:25;;;;;;;7.30;2.83;;;5.90;99.90;;;;;;5039637;28;20037;-73
2022/02/22 07:39:51;;;;;;;6.97;2.85;;;5.90;99.90;;;;;;5042007;28;20026;-71
2022/02/22 07:42:17;;;;;;;6.85;1.63;;;5.90;99.90;;;;;;5037131;28;20022;-71
2022/02/22 07:44:43;;;;;;;6.85;2.30;;;5.90;99.90;;;;;;5039680;28;20501;-71
2022/02/22 07:47:08;;;;;;;3.88;2.20;;;5.90;99.90;;;;;;5034287;28;20030;-71
2022/02/22 07:49:34;;;;;;;8.18;2.42;;;5.90;99.90;;;;;;5047368;28;20037;-71
2022/02/22 07:51:59;;;;;;;8.07;1.95;;;6.00;99.90;;;;;;5043428;28;20036;-71
2022/02/22 07:54:25;;;;;;;5.60;2.30;;;6.00;99.90;;;;;;5031465;28;20053;-70
2022/02/22 07:56:50;;;;;;;6.78;2.05;;;6.00;99.90;;;;;;5035361;28;20029;-72
2022/02/22 07:59:16;;;;;;;5.38;2.05;;;6.00;99.90;;;;;;5026716;28;20026;-70
2022/02/22 08:01:42;;;;;;;9.02;2.33;;;6.10;99.90;;;;;;5018432;28;20057;-72
2022/02/22 08:04:07;;;;;;;8.93;3.00;;;6.10;99.90;;;;;;5024448;28;20059;-70
2022/02/22 08:06:33;;;;;;;10.05;3.10;;;6.10;99.90;;;;;;5028590;28;20041;-70
2022/02/22 08:08:59;;;;;;;4.25;1.50;;;6.10;99.90;;;;;;5031451;28;20486;-72
2022/02/22 08:11:26;;;;;;;8.25;1.92;;;6.30;99.90;;;;;;5017381;28;20408;-71
2022/02/22 08:13:53;;;;;;;9.65;1.92;;;6.40;99.90;;;;;;5030240;28;20112;-70
2022/02/22 08:16:19;;;;;;;9.70;2.13;;;6.50;99.90;;;;;;5026445;28;20152;-71
2022/02/22 08:18:44;;;;;;;12.75;2.92;;;6.50;99.90;;;;;;5031985;28;20488;-72
2022/02/22 08:21:10;;;;;;;7.60;2.15;;;6.60;99.90;;;;;;5022543;28;20471;-70
2022/02/22 08:23:35;;;;;;;9.80;2.45;;;6.60;99.90;;;;;;5025423;28;20021;-71
2022/02/22 08:26:04;;;;;;;6.30;2.45;;;6.80;99.90;;;;;;5027550;28;20022;-71
2022/02/22 08:28:30;;;;;;;3.17;1.25;;;6.70;99.90;;;;;;5029707;28;20092;-77
2022/02/22 08:30:58;;;;;;;10.05;2.70;;;6.80;99.90;;;;;;5039073;28;20496;-79
2022/02/22 08:33:23;;;;;;;10.43;2.05;;;6.90;99.90;;;;;;5038283;28;20020;-79
2022/02/22 08:35:49;;;;;;;11.32;2.40;;;6.90;99.90;;;;;;5043424;28;20047;-80
2022/02/22 08:38:15;;;;;;;5.47;1.65;;;6.90;99.90;;;;;;5029388;28;20441;-79
2022/02/22 08:40:41;;;;;;;13.23;4.03;;;6.90;99.90;;;;;;5041101;28;20497;-77
2022/02/22 08:43:06;;;;;;;3.13;1.60;;;7.10;99.90;;;;;;5034696;28;20063;-76
2022/02/22 08:45:32;;;;;;;9.10;2.00;;;7.10;99.90;;;;;;5030026;28;20017;-77
2022/02/22 08:47:57;;;;;;;9.73;2.30;;;7.20;99.90;;;;;;5037702;28;20030;-76
2022/02/22 08:50:24;;;;;;;8.02;1.85;;;7.30;99.90;;;;;;5027857;28;20174;-76
2022/02/22 08:52:49;;;;;;;8.80;1.67;;;7.30;99.90;;;;;;5022852;28;20022;-76
2022/02/22 08:55:15;;;;;;;6.25;1.83;;;7.40;99.90;;;;;;5031057;28;20560;-76
2022/02/22 08:57:41;;;;;;;5.57;1.27;;;7.50;99.90;;;;;;5023976;28;20080;-76
2022/02/22 09:00:10;;;;;;;8.77;2.25;;;7.50;99.90;;;;;;5027388;28;20030;-76
2022/02/22 09:02:40;;;;;;;6.80;1.77;;;7.50;99.90;;;;;;5036311;28;20016;-76
2022/02/22 09:05:06;;;;;;;11.98;3.67;;;7.50;99.90;;;;;;5027027;28;20108;-76
2022/02/22 09:07:32;;;;;;;6.70;1.83;;;7.50;99.90;;;;;;5026274;28;20083;-76
2022/02/22 09:09:58;;;;;;;9.70;1.90;;;7.60;99.90;;;;;;5033526;28;20018;-77
2022/02/22 09:12:23;;;;;;;11.77;1.77;;;7.60;99.90;;;;;;5030885;28;20025;-77
2022/02/22 09:14:49;;;;;;;6.75;2.10;;;7.50;99.90;;;;;;5038921;28;20068;-78
2022/02/22 09:17:15;;;;;;;4.68;1.63;;;7.40;99.90;;;;;;5035053;28;20083;-76
2022/02/22 09:19:40;;;;;;;8.38;2.20;;;7.60;99.90;;;;;;5036132;28;20456;-77
2022/02/22 09:22:06;;;;;;;8.00;2.40;;;7.60;99.90;;;;;;5021809;28;20032;-76
2022/02/22 09:24:31;;;;;;;5.57;1.58;;;7.60;99.90;;;;;;5027273;28;20031;-77
2022/02/22 09:26:57;;;;;;;7.93;1.95;;;7.80;99.90;;;;;;5039039;28;20427;-78
2022/02/22 09:29:23;;;;;;;3.92;1.75;;;7.70;99.90;;;;;;5038923;28;20021;-79
2022/02/22 09:31:49;;;;;;;10.77;3.67;;;7.60;99.90;;;;;;5045915;28;20056;-79
2022/02/22 09:34:18;;;;;;;9.65;2.10;;;7.70;99.90;;;;;;5024116;28;20038;-78
2022/02/22 09:36:43;;;;;;;9.93;1.85;;;7.60;99.90;;;;;;5027350;28;20014;-77
2022/02/22 09:39:09;;;;;;;3.95;1.30;;;7.50;99.90;;;;;;5028909;28;20792;-77
2022/02/22 09:41:38;;;;;;;9.02;2.58;;;7.50;99.90;;;;;;5036830;28;20065;-77
2022/02/22 09:44:04;;;;;;;6.90;1.73;;;7.60;99.90;;;;;;5037161;28;20026;-76
2022/02/22 09:46:30;;;;;;;10.20;2.00;;;7.60;99.90;;;;;;5033861;28;20104;-79
2022/02/22 09:48:56;;;;;;;10.65;1.70;;;7.80;99.90;;;;;;5040077;28;20048;-77
2022/02/22 09:51:21;;;;;;;6.75;1.48;;;7.80;99.90;;;;;;5050316;28;20034;-77
2022/02/22 09:53:47;;;;;;;5.78;2.17;;;8.00;99.90;;;;;;5051017;28;20025;-76
2022/02/22 09:56:13;;;;;;;11.50;2.20;;;8.10;99.90;;;;;;5051931;28;20022;-76
2022/02/22 09:58:38;;;;;;;7.45;1.83;;;8.20;99.90;;;;;;5056779;28;20096;-77
2022/02/22 10:01:04;;;;;;;6.03;1.42;;;8.10;99.90;;;;;;5052147;28;20024;-77
2022/02/22 10:03:30;;;;;;;7.18;1.45;;;8.00;99.90;;;;;;5046981;28;20032;-76
2022/02/22 10:06:03;;;;;;;6.18;1.40;;;8.00;99.90;;;;;;5059086;28;20072;-76
2022/02/22 10:08:31;;;;;;;4.68;1.40;;;8.10;99.90;;;;;;5048444;28;20073;-75
2022/02/22 10:11:08;;;;;;;8.13;1.77;;;8.30;99.90;;;;;;5047425;28;20022;-75
2022/02/22 10:13:35;;;;;;;8.85;2.33;;;8.50;99.90;;;;;;5034876;28;20021;-76
2022/02/22 10:16:10;;;;;;;7.10;1.70;;;8.60;99.90;;;;;;5030462;28;20040;-76
2022/02/22 10:18:52;;;;;;;4.45;1.65;;;8.70;99.90;;;;;;5024226;28;20109;-77
2022/02/22 10:21:19;;;;;;;6.70;1.73;;;8.80;99.90;;;;;;5047233;28;20040;-76
2022/02/22 10:23:44;;;;;;;11.85;2.22;;;8.70;99.90;;;;;;5045225;28;20032;-76
2022/02/22 10:26:21;;;;;;;5.57;1.70;;;8.90;99.90;;;;;;5046632;28;20026;-76
2022/02/22 10:28:46;;;;;;;7.47;2.10;;;9.00;99.90;;;;;;5044430;28;20025;-76
2022/02/22 10:31:12;;;;;;;10.13;1.83;;;9.10;99.90;;;;;;5047722;28;20746;-76
2022/02/22 10:33:43;;;;;;;8.55;2.30;;;9.20;99.90;;;;;;5048925;28;20018;-77
2022/02/22 10:36:18;;;;;;;6.07;1.65;;;9.30;99.90;;;;;;5060570;28;20081;-76
2022/02/22 10:38:43;;;;;;;5.25;1.80;;;9.20;99.90;;;;;;5050689;28;20073;-76
2022/02/22 10:41:15;;;;;;;7.38;2.03;;;9.20;99.90;;;;;;5052244;28;20033;-76
2022/02/22 10:43:49;;;;;;;5.57;2.35;;;9.20;99.90;;;;;;5047958;28;20006;-76
2022/02/22 10:46:14;;;;;;;9.45;2.22;;;9.20;99.90;;;;;;5051884;28;20025;-76
2022/02/22 10:48:42;;;;;;;8.60;1.77;;;9.30;99.90;;;;;;5048306;28;20101;-76
2022/02/22 10:51:13;;;;;;;5.43;1.48;;;9.20;99.90;;;;;;5029345;28;20030;-76
2022/02/22 10:53:45;;;;;;;8.63;2.47;;;9.30;99.90;;;;;;5025339;28;20026;-77
2022/02/22 10:56:13;;;;;;;7.20;1.50;;;9.30;99.90;;;;;;5028541;28;20354;-77
2022/02/22 10:58:40;;;;;;;5.20;1.63;;;9.40;99.90;;;;;;5029755;28;20028;-77
2022/02/22 11:01:13;;;;;;;6.60;1.85;;;9.50;99.90;;;;;;5030087;28;20025;-77
2022/02/22 11:03:45;;;;;;;10.23;2.30;;;9.50;99.90;;;;;;5027331;28;20540;-77
2022/02/22 11:06:12;;;;;;;5.95;1.73;;;9.50;99.90;;;;;;5032645;28;20034;-75
2022/02/22 11:08:43;;;;;;;10.70;2.75;;;9.30;99.90;;;;;;5027553;28;20021;-77
2022/02/22 11:11:12;;;;;;;10.48;1.98;;;9.20;99.90;;;;;;5030408;28;20021;-77
2022/02/22 11:13:39;;;;;;;10.38;2.42;;;9.00;99.90;;;;;;5038208;28;20027;-76
2022/02/22 11:16:08;;;;;;;8.05;1.92;;;8.90;99.90;;;;;;5038679;28;20036;-77
2022/02/22 11:18:45;;;;;;;4.57;1.67;;;8.90;99.90;;;;;;5041465;28;20025;-76
2022/02/22 11:21:11;;;;;;;10.77;2.58;;;9.00;99.90;;;;;;5042497;28;20033;-76
2022/02/22 11:23:37;;;;;;;8.85;1.83;;;9.00;99.90;;;;;;5045859;28;20026;-77
2022/02/22 11:26:08;;;;;;;10.45;2.17;;;9.10;99.90;;;;;;5034199;28;20033;-76
2022/02/22 11:28:37;;;;;;;8.63;2.70;;;9.00;99.90;;;;;;5038108;28;20040;-77
2022/02/22 11:31:05;;;;;;;5.90;1.90;;;9.10;99.90;;;;;;5028956;28;20113;-77
2022/02/22 11:33:38;;;;;;;5.72;1.65;;;9.40;99.90;;;;;;5030718;28;20398;-77
2022/02/22 11:36:08;;;;;;;7.57;2.30;;;9.30;99.90;;;;;;5029847;28;20080;-76
2022/02/22 11:38:42;;;;;;;6.82;2.17;;;9.30;99.90;;;;;;5031727;28;20018;-76
2022/02/22 11:41:16;;;;;;;8.65;2.42;;;9.40;99.90;;;;;;5027212;28;20085;-76
2022/02/22 11:44:03;;;;;;;10.20;3.03;;;9.60;99.90;;;;;;5026536;28;20561;-76
2022/02/22 11:46:44;;;;;;;9.27;3.80;;;9.60;99.90;;;;;;5022106;28;20032;-74
2022/02/22 11:49:20;;;;;;;5.55;1.60;;;9.60;99.90;;;;;;5029446;28;20552;-74
2022/02/22 11:51:52;;;;;;;5.00;1.70;;;9.60;99.90;;;;;;5020193;28;20040;-74
2022/02/22 11:54:19;;;;;;;6.50;1.92;;;9.50;99.90;;;;;;5030011;28;20513;-74
2022/02/22 11:56:45;;;;;;;10.32;2.20;;;9.50;99.90;;;;;;5030775;28;20104;-73
2022/02/22 11:59:21;;;;;;;6.43;2.45;;;9.50;99.90;;;;;;5026337;28;20486;-76
2022/02/22 12:01:56;;;;;;;8.00;1.60;;;9.50;99.90;;;;;;5041025;28;20020;-77
2022/02/22 12:04:30;;;;;;;7.82;2.47;;;9.40;99.90;;;;;;5026474;28;20489;-77
2022/02/22 12:06:57;;;;;;;7.63;1.90;;;9.50;99.90;;;;;;5033566;28;20033;-75
2022/02/22 12:09:39;;;;;;;12.38;2.80;;;9.70;99.90;;;;;;5027821;28;20093;-77
2022/02/22 12:12:10;;;;;;;6.43;1.58;;;9.80;99.90;;;;;;5038441;28;20311;-77
2022/02/22 12:14:36;;;;;;;;;;;10.10;99.90;;;;;;5032089;28;20033;-76
2022/02/22 12:17:09;;;;;;;9.43;2.10;;;10.30;99.90;;;;;;5036588;28;19917;-76
2022/02/22 12:19:35;;;;;;;5.85;1.60;;;10.40;99.90;;;;;;5030032;28;20029;-73
2022/02/22 12:22:04;;;;;;;6.93;1.55;;;10.40;99.90;;;;;;5022728;28;20104;-73
2022/02/22 12:24:30;;;;;;;8.02;2.00;;;10.40;99.90;;;;;;5026089;28;20049;-76
2022/02/22 12:26:56;;;;;;;7.93;2.08;;;10.40;99.90;;;;;;5023218;28;20564;-75
2022/02/22 12:29:23;;;;;;;5.05;2.30;;;10.20;99.90;;;;;;5029881;28;20105;-77
2022/02/22 12:31:54;;;;;;;8.95;1.70;;;10.30;99.90;;;;;;5029597;28;20397;-74
2022/02/22 12:34:23;;;;;;;11.18;2.22;;;10.40;99.90;;;;;;5030581;28;20036;-74
2022/02/22 12:36:53;;;;;;;7.05;2.63;;;10.50;99.90;;;;;;5037495;28;20092;-75
2022/02/22 12:39:23;;;;;;;7.82;1.73;;;10.40;99.90;;;;;;5040454;28;20026;-75
2022/02/22 12:41:53;;;;;;;10.63;1.85;;;10.40;99.90;;;;;;5029795;28;20052;-75
2022/02/22 12:44:21;;;;;;;6.40;2.40;;;10.30;99.90;;;;;;5040171;28;20029;-74
2022/02/22 12:46:50;;;;;;;7.57;2.38;;;10.20;99.90;;;;;;5032617;28;20026;-73
2022/02/22 12:49:18;;;;;;;8.65;2.28;;;10.30;99.90;;;;;;5033915;28;20025;-74
2022/02/22 12:51:49;;;;;;;6.70;1.70;;;10.30;99.90;;;;;;5020440;28;20030;-73
2022/02/22 12:54:19;;;;;;;5.97;3.25;;;10.50;99.90;;;;;;5027099;28;20072;-74